createdAt,value
2019-05-07T00:02:32.157Z,15.10
2019-05-07T00:05:04.827Z,14.83
2019-05-07T00:07:35.030Z,15.20
2019-05-07T00:10:06.543Z,15.53
2019-05-07T00:12:36.942Z,14.93
2019-05-07T00:15:12.556Z,14.28
2019-05-07T00:17:42.984Z,14.47
2019-05-07T00:20:13.736Z,14.98
2019-05-07T00:22:44.627Z,14.47
2019-05-07T00:25:15.366Z,14.60
2019-05-07T00:27:46.100Z,14.15
2019-05-07T00:30:17.374Z,15.35
2019-05-07T00:32:49.119Z,13.30
2019-05-07T00:35:22.558Z,14.20
2019-05-07T00:38:07.032Z,13.98
2019-05-07T00:40:42.657Z,14.33
2019-05-07T00:45:56.835Z,13.53
2019-05-07T00:48:26.957Z,15.85
2019-05-07T00:50:58.973Z,15.28
2019-05-07T00:53:29.708Z,14.35
2019-05-07T00:56:01.908Z,14.95
2019-05-07T00:58:32.634Z,14.25
2019-05-07T01:01:03.414Z,14.18
2019-05-07T01:03:34.185Z,15.13
2019-05-07T01:06:05.013Z,14.23
2019-05-07T01:08:35.673Z,15.55
2019-05-07T01:11:07.215Z,14.87
2019-05-07T01:13:38.118Z,13.60
2019-05-07T01:16:09.276Z,14.25
2019-05-07T01:18:41.915Z,14.85
2019-05-07T01:21:13.220Z,14.23
2019-05-07T01:23:43.931Z,14.18
2019-05-07T01:26:14.609Z,14.95
2019-05-07T01:29:02.879Z,13.85
2019-05-07T01:31:35.666Z,14.75
2019-05-07T01:34:20.344Z,13.90
2019-05-07T01:36:52.366Z,14.30
2019-05-07T01:39:23.340Z,14.00
2019-05-07T01:41:53.964Z,14.30
2019-05-07T01:44:24.586Z,15.38
2019-05-07T01:46:55.395Z,14.30
2019-05-07T01:49:26.066Z,14.07
2019-05-07T01:51:56.800Z,14.20
2019-05-07T01:54:27.582Z,15.18
2019-05-07T01:56:58.260Z,13.72
2019-05-07T01:59:28.977Z,14.60
2019-05-07T02:02:02.885Z,15.23
2019-05-07T02:04:38.205Z,15.23
2019-05-07T02:10:02.652Z,15.28
2019-05-07T02:12:33.857Z,16.23
2019-05-07T02:15:04.571Z,14.90
2019-05-07T02:17:35.300Z,14.45
2019-05-07T02:20:07.861Z,14.93
2019-05-07T02:22:38.542Z,15.93
2019-05-07T02:25:09.351Z,15.68
2019-05-07T02:27:41.872Z,14.70
2019-05-07T02:30:14.856Z,15.18
2019-05-07T02:32:45.152Z,15.28
2019-05-07T02:35:16.138Z,15.32
2019-05-07T02:37:53.422Z,15.35
2019-05-07T02:40:25.827Z,14.75
2019-05-07T02:42:56.678Z,15.95
2019-05-07T02:45:28.963Z,14.83
2019-05-07T02:47:59.838Z,14.30
2019-05-07T02:50:43.510Z,15.35
2019-05-07T02:53:18.143Z,15.40
2019-05-07T02:55:53.887Z,15.75
2019-05-07T03:00:55.086Z,14.60
2019-05-07T03:03:25.839Z,14.13
2019-05-07T03:05:56.824Z,15.20
2019-05-07T03:08:27.718Z,14.43
2019-05-07T03:10:58.491Z,14.60
2019-05-07T03:13:29.297Z,15.85
2019-05-07T03:16:03.530Z,15.18
2019-05-07T03:18:33.537Z,15.65
2019-05-07T03:21:12.703Z,16.55
2019-05-07T03:23:56.469Z,16.27
2019-05-07T03:26:39.313Z,16.42
2019-05-07T03:29:13.116Z,16.27
2019-05-07T03:31:56.341Z,16.02
2019-05-07T03:34:46.962Z,15.80
2019-05-07T03:37:19.016Z,15.75
2019-05-07T03:39:49.618Z,16.20
2019-05-07T03:42:23.410Z,15.50
2019-05-07T03:45:03.349Z,15.08
2019-05-07T03:47:34.432Z,15.45
2019-05-07T03:50:07.042Z,15.58
2019-05-07T03:52:37.465Z,15.53
2019-05-07T03:55:09.762Z,16.00
2019-05-07T03:57:43.277Z,15.98
2019-05-07T04:00:13.323Z,16.42
2019-05-07T04:02:44.165Z,16.15
2019-05-07T04:05:15.422Z,15.55
2019-05-07T04:07:46.230Z,15.98
2019-05-07T04:10:16.854Z,15.45
2019-05-07T04:12:47.449Z,15.28
2019-05-07T04:15:19.576Z,17.32
2019-05-07T04:17:49.860Z,16.65
2019-05-07T04:20:23.683Z,16.75
2019-05-07T04:22:53.518Z,15.85
2019-05-07T04:25:34.776Z,15.45
2019-05-07T04:28:14.172Z,14.87
2019-05-07T04:30:45.029Z,16.40
2019-05-07T04:33:17.158Z,16.48
2019-05-07T04:35:49.725Z,16.10
2019-05-07T04:38:23.584Z,17.10
2019-05-07T04:40:53.826Z,16.52
2019-05-07T04:43:24.986Z,16.93
2019-05-07T04:45:55.757Z,16.30
2019-05-07T04:48:28.123Z,17.07
2019-05-07T04:51:03.376Z,15.83
2019-05-07T04:53:33.325Z,16.07
2019-05-07T04:56:04.220Z,15.18
2019-05-07T04:58:35.231Z,16.02
2019-05-07T05:01:07.398Z,16.55
2019-05-07T05:03:39.362Z,16.42
2019-05-07T05:06:10.218Z,16.67
2019-05-07T05:08:43.581Z,16.70
2019-05-07T05:11:13.557Z,16.05
2019-05-07T05:13:44.835Z,15.53
2019-05-07T05:16:32.618Z,14.58
2019-05-07T05:19:02.949Z,14.13
2019-05-07T05:21:34.986Z,14.53
2019-05-07T05:24:07.032Z,14.53
2019-05-07T05:26:37.955Z,14.60
2019-05-07T05:29:08.604Z,14.98
2019-05-07T05:31:39.020Z,14.38
2019-05-07T05:34:09.946Z,15.13
2019-05-07T05:36:42.516Z,14.30
2019-05-07T05:39:13.349Z,14.03
2019-05-07T05:41:45.567Z,13.93
2019-05-07T05:44:22.636Z,14.35
2019-05-07T05:46:54.380Z,14.47
2019-05-07T05:49:25.247Z,14.78
2019-05-07T05:52:03.207Z,14.15
2019-05-07T05:54:35.582Z,14.80
2019-05-07T05:57:17.451Z,15.20
2019-05-07T06:00:02.138Z,14.45
2019-05-07T06:02:35.212Z,13.30
2019-05-07T06:05:14.345Z,14.65
2019-05-07T06:07:53.001Z,14.98
2019-05-07T06:10:25.741Z,14.80
2019-05-07T06:13:13.524Z,14.40
2019-05-07T06:16:03.113Z,15.75
2019-05-07T06:18:38.393Z,14.65
2019-05-07T06:21:14.353Z,15.05
2019-05-07T06:23:52.797Z,14.68
2019-05-07T06:26:24.282Z,15.30
2019-05-07T06:28:55.472Z,14.38
2019-05-07T06:31:26.203Z,13.72
2019-05-07T06:33:57.010Z,14.20
2019-05-07T06:36:28.062Z,15.20
2019-05-07T06:39:01.937Z,14.87
2019-05-07T06:41:34.496Z,15.30
2019-05-07T06:44:06.584Z,14.23
2019-05-07T06:46:38.791Z,14.18
2019-05-07T06:49:09.544Z,14.50
2019-05-07T06:51:41.981Z,13.80
2019-05-07T06:54:13.025Z,14.83
2019-05-07T06:56:45.070Z,14.58
2019-05-07T06:59:22.342Z,14.00
2019-05-07T07:01:56.609Z,14.90
2019-05-07T07:04:28.796Z,14.47
2019-05-07T07:07:07.218Z,14.80
2019-05-07T07:09:39.384Z,14.73
2019-05-07T07:12:26.145Z,14.40
2019-05-07T07:14:58.147Z,13.68
2019-05-07T07:17:29.098Z,15.40
2019-05-07T07:20:02.255Z,14.90
2019-05-07T07:22:33.197Z,15.83
2019-05-07T07:25:06.529Z,14.90
2019-05-07T07:27:36.178Z,14.18
2019-05-07T07:30:09.879Z,15.20
2019-05-07T07:32:42.489Z,14.87
2019-05-07T07:35:14.561Z,14.65
2019-05-07T07:37:47.090Z,14.65
2019-05-07T07:40:29.856Z,15.03
2019-05-07T07:43:03.073Z,14.47
2019-05-07T07:45:32.861Z,14.50
2019-05-07T07:48:03.465Z,14.85
2019-05-07T07:50:34.168Z,15.32
2019-05-07T07:53:04.928Z,15.70
2019-05-07T07:55:37.106Z,15.95
2019-05-07T07:58:11.920Z,15.15
2019-05-07T08:01:02.811Z,15.43
2019-05-07T08:03:33.820Z,14.95
2019-05-07T08:06:04.574Z,14.93
2019-05-07T08:08:35.312Z,14.47
2019-05-07T08:11:06.188Z,15.78
2019-05-07T08:13:37.270Z,14.63
2019-05-07T08:16:08.010Z,15.75
2019-05-07T08:18:38.914Z,14.73
2019-05-07T08:21:11.922Z,13.85
2019-05-07T08:23:57.984Z,15.25
2019-05-07T08:26:28.807Z,14.78
2019-05-07T08:28:59.665Z,14.13
2019-05-07T08:31:49.144Z,14.70
2019-05-07T08:34:21.876Z,14.07
2019-05-07T08:36:52.830Z,14.78
2019-05-07T08:39:25.200Z,14.63
2019-05-07T08:41:56.230Z,13.98
2019-05-07T08:44:32.521Z,15.13
2019-05-07T08:47:14.571Z,14.38
2019-05-07T08:49:45.749Z,14.30
2019-05-07T08:52:17.663Z,14.13
2019-05-07T08:54:48.487Z,14.68
2019-05-07T08:57:19.256Z,13.88
2019-05-07T08:59:58.341Z,13.68
2019-05-07T09:02:22.403Z,14.47
2019-05-07T09:04:53.229Z,13.25
2019-05-07T09:07:23.965Z,13.50
2019-05-07T09:09:54.748Z,14.23
2019-05-07T09:12:25.421Z,14.55
2019-05-07T09:14:56.540Z,14.70
2019-05-07T09:17:27.596Z,14.68
2019-05-07T09:19:58.292Z,14.95
2019-05-07T09:22:29.218Z,13.20
2019-05-07T09:25:00.305Z,14.28
2019-05-07T09:27:42.402Z,14.43
2019-05-07T09:30:32.476Z,13.38
2019-05-07T09:33:12.342Z,13.43
2019-05-07T09:35:43.836Z,13.68
2019-05-07T09:38:14.545Z,13.75
2019-05-07T09:40:45.261Z,13.98
2019-05-07T09:43:22.048Z,13.65
2019-05-07T09:45:52.863Z,14.35
2019-05-07T09:48:23.827Z,13.83
2019-05-07T09:50:54.520Z,13.18
2019-05-07T09:53:25.326Z,13.78
2019-05-07T09:55:56.283Z,14.10
2019-05-07T09:58:36.677Z,14.47
2019-05-07T10:00:59.048Z,13.65
2019-05-07T10:03:32.178Z,13.78
2019-05-07T10:06:02.385Z,13.72
2019-05-07T10:08:34.247Z,13.58
2019-05-07T10:11:06.397Z,13.95
2019-05-07T10:13:53.878Z,14.03
2019-05-07T10:16:27.932Z,13.90
2019-05-07T10:18:58.777Z,14.45
2019-05-07T10:21:29.514Z,13.03
2019-05-07T10:24:02.260Z,14.13
2019-05-07T10:26:32.546Z,13.08
2019-05-07T10:29:03.222Z,12.70
2019-05-07T10:31:34.248Z,13.30
2019-05-07T10:34:07.269Z,13.95
2019-05-07T10:36:38.224Z,12.78
2019-05-07T10:39:10.150Z,14.25
2019-05-07T10:42:01.827Z,13.48
2019-05-07T10:44:43.174Z,14.20
2019-05-07T10:47:17.999Z,14.23
2019-05-07T10:49:52.908Z,14.07
2019-05-07T10:52:23.882Z,14.87
2019-05-07T10:54:59.637Z,14.83
2019-05-07T10:57:26.586Z,14.20
2019-05-07T10:59:57.220Z,13.62
2019-05-07T11:02:29.256Z,14.70
2019-05-07T11:05:02.246Z,14.07
2019-05-07T11:07:32.815Z,14.90
2019-05-07T11:10:03.715Z,14.30
2019-05-07T11:12:34.695Z,13.03
2019-05-07T11:15:06.659Z,13.75
2019-05-07T11:17:38.825Z,14.03
2019-05-07T11:20:12.202Z,12.82
2019-05-07T11:22:43.657Z,13.62
2019-05-07T11:25:14.419Z,13.55
2019-05-07T11:27:45.956Z,13.35
2019-05-07T11:30:16.942Z,13.40
2019-05-07T11:32:47.700Z,13.60
2019-05-07T11:35:18.933Z,13.35
2019-05-07T11:37:52.040Z,13.50
2019-05-07T11:40:23.990Z,13.65
2019-05-07T11:43:13.540Z,13.45
2019-05-07T11:45:48.736Z,12.90
2019-05-07T11:48:22.114Z,13.38
2019-05-07T11:51:12.404Z,13.53
2019-05-07T11:54:01.959Z,14.40
2019-05-07T11:56:32.786Z,14.68
2019-05-07T11:59:03.884Z,14.58
2019-05-07T12:01:46.765Z,15.68
2019-05-07T12:04:08.342Z,15.40
2019-05-07T12:06:39.021Z,14.55
2019-05-07T12:09:11.968Z,15.28
2019-05-07T12:11:42.602Z,14.38
2019-05-07T12:14:13.583Z,14.35
2019-05-07T12:16:44.307Z,14.10
2019-05-07T12:19:16.630Z,13.32
2019-05-07T12:21:47.793Z,14.28
2019-05-07T12:24:18.546Z,13.83
2019-05-07T12:26:49.414Z,14.18
2019-05-07T12:29:33.356Z,14.53
2019-05-07T12:32:14.680Z,15.90
2019-05-07T12:34:46.838Z,18.00
2019-05-07T12:37:17.528Z,17.25
2019-05-07T12:39:49.972Z,16.48
2019-05-07T12:42:22.349Z,15.68
2019-05-07T12:44:53.330Z,15.83
2019-05-07T12:47:24.279Z,15.18
2019-05-07T12:49:55.103Z,14.78
2019-05-07T12:52:27.582Z,15.40
2019-05-07T12:54:59.984Z,14.95
2019-05-07T12:57:31.295Z,15.08
2019-05-07T13:00:22.810Z,14.75
2019-05-07T13:02:54.876Z,15.53
2019-05-07T13:05:25.978Z,15.03
2019-05-07T13:07:56.983Z,16.00
2019-05-07T13:10:48.287Z,15.50
2019-05-07T13:13:19.459Z,15.85
2019-05-07T13:15:51.784Z,15.03
2019-05-07T13:18:23.056Z,15.03
2019-05-07T13:20:54.101Z,16.52
2019-05-07T13:23:25.326Z,14.83
2019-05-07T13:25:56.228Z,15.23
2019-05-07T13:28:29.810Z,15.93
2019-05-07T13:31:02.353Z,15.85
2019-05-07T13:33:34.990Z,15.30
2019-05-07T13:36:06.558Z,14.50
2019-05-07T13:41:53.310Z,14.45
2019-05-07T13:44:23.965Z,14.93
2019-05-07T13:47:14.718Z,14.45
2019-05-07T13:49:46.379Z,14.38
2019-05-07T13:52:18.469Z,14.25
2019-05-07T13:54:52.449Z,14.33
2019-05-07T13:57:23.836Z,14.28
2019-05-07T13:59:55.139Z,14.40
2019-05-07T14:02:31.759Z,13.53
2019-05-07T14:05:04.236Z,13.95
2019-05-07T14:07:37.179Z,13.85
2019-05-07T14:10:08.490Z,14.47
2019-05-07T14:12:42.510Z,13.93
2019-05-07T14:15:13.765Z,14.20
2019-05-07T14:17:44.932Z,13.20
2019-05-07T14:20:15.997Z,14.45
2019-05-07T14:22:46.951Z,13.62
2019-05-07T14:25:19.076Z,13.98
2019-05-07T14:27:52.699Z,13.80
2019-05-07T14:30:24.525Z,14.33
2019-05-07T14:33:13.652Z,15.18
2019-05-07T14:35:47.270Z,14.47
2019-05-07T14:38:32.145Z,14.10
2019-05-07T14:41:03.435Z,14.07
2019-05-07T14:43:36.331Z,14.50
2019-05-07T14:46:07.489Z,14.50
2019-05-07T14:48:43.502Z,14.75
2019-05-07T14:51:12.710Z,14.68
2019-05-07T14:53:44.264Z,14.03
2019-05-07T14:56:15.365Z,14.20
2019-05-07T14:58:47.250Z,14.87
2019-05-07T15:01:18.983Z,14.15
2019-05-07T15:03:51.625Z,14.60
2019-05-07T15:06:22.472Z,14.65
2019-05-07T15:08:54.897Z,15.43
2019-05-07T15:11:26.227Z,15.03
2019-05-07T15:13:57.280Z,14.60
2019-05-07T15:16:29.220Z,14.83
2019-05-07T15:19:00.271Z,15.30
2019-05-07T15:21:32.307Z,14.87
2019-05-07T15:24:04.391Z,15.88
2019-05-07T15:26:36.884Z,16.00
2019-05-07T15:29:09.401Z,14.98
2019-05-07T15:31:57.295Z,15.58
2019-05-07T15:34:28.333Z,15.63
2019-05-07T15:37:01.754Z,15.18
2019-05-07T15:39:36.129Z,15.48
2019-05-07T15:42:08.317Z,15.95
2019-05-07T15:44:39.595Z,14.53
2019-05-07T15:47:12.490Z,15.18
2019-05-07T15:49:43.596Z,14.13
2019-05-07T15:52:18.988Z,14.90
2019-05-07T15:54:52.093Z,14.55
2019-05-07T15:57:23.624Z,14.55
2019-05-07T15:59:56.955Z,14.70
2019-05-07T16:02:32.327Z,14.90
2019-05-07T16:05:05.005Z,14.85
2019-05-07T16:07:35.450Z,14.85
2019-05-07T16:10:06.250Z,15.20
2019-05-07T16:12:37.038Z,14.78
2019-05-07T16:15:09.206Z,14.28
2019-05-07T16:17:42.905Z,14.53
2019-05-07T16:20:14.223Z,14.30
2019-05-07T16:22:46.539Z,13.95
2019-05-07T16:25:17.463Z,14.43
2019-05-07T16:27:48.391Z,14.58
2019-05-07T16:30:19.215Z,14.50
2019-05-07T16:32:49.927Z,14.10
2019-05-07T16:35:22.633Z,15.30
2019-05-07T16:37:53.006Z,14.05
2019-05-07T16:40:23.712Z,14.18
2019-05-07T16:42:55.108Z,15.30
2019-05-07T16:45:25.787Z,14.73
2019-05-07T16:47:56.505Z,14.90
2019-05-07T16:50:28.287Z,15.10
2019-05-07T16:52:59.360Z,14.33
2019-05-07T16:55:36.914Z,14.80
2019-05-07T16:58:09.397Z,15.25
2019-05-07T17:00:42.287Z,14.75
2019-05-07T17:03:14.537Z,15.05
2019-05-07T17:05:45.355Z,14.87
2019-05-07T17:08:17.828Z,15.50
2019-05-07T17:10:49.321Z,16.10
2019-05-07T17:13:20.059Z,15.13
2019-05-07T17:15:58.345Z,15.53
2019-05-07T17:18:29.314Z,15.53
2019-05-07T17:21:02.068Z,14.55
2019-05-07T17:23:43.358Z,15.03
2019-05-07T17:26:05.093Z,14.98
2019-05-07T17:28:36.168Z,14.87
2019-05-07T17:31:25.941Z,15.23
2019-05-07T17:33:57.885Z,14.63
2019-05-07T17:36:28.664Z,14.35
2019-05-07T17:38:59.384Z,14.90
2019-05-07T17:41:32.079Z,14.68
2019-05-07T17:44:02.724Z,15.03
2019-05-07T17:46:33.366Z,15.08
2019-05-07T17:49:04.169Z,14.85
2019-05-07T17:51:42.640Z,14.50
2019-05-07T17:54:13.739Z,14.68
2019-05-07T17:56:44.832Z,15.18
2019-05-07T17:59:15.760Z,14.53
2019-05-07T18:01:52.880Z,15.45
2019-05-07T18:04:22.905Z,14.60
2019-05-07T18:06:53.579Z,14.80
2019-05-07T18:09:24.324Z,13.83
2019-05-07T18:11:56.586Z,14.90
2019-05-07T18:14:27.379Z,14.95
2019-05-07T18:17:01.989Z,14.35
2019-05-07T18:19:33.307Z,14.50
2019-05-07T18:22:04.072Z,15.00
2019-05-07T18:24:34.808Z,14.68
2019-05-07T18:27:07.157Z,15.00
2019-05-07T18:29:37.943Z,14.87
2019-05-07T18:32:09.000Z,13.83
2019-05-07T18:34:40.054Z,13.75
2019-05-07T18:37:12.548Z,13.90
2019-05-07T18:39:42.993Z,13.72
2019-05-07T18:42:13.672Z,14.23
2019-05-07T18:44:44.415Z,13.48
2019-05-07T18:47:15.179Z,13.72
2019-05-07T18:49:45.967Z,13.20
2019-05-07T18:52:16.723Z,14.25
2019-05-07T18:54:47.968Z,14.38
2019-05-07T18:57:18.904Z,14.38
2019-05-07T18:59:49.748Z,13.83
2019-05-07T19:02:22.406Z,14.45
2019-05-07T19:04:52.608Z,13.85
2019-05-07T19:07:23.431Z,14.55
2019-05-07T19:09:54.254Z,14.23
2019-05-07T19:12:26.633Z,14.55
2019-05-07T19:14:57.405Z,13.90
2019-05-07T19:17:28.854Z,14.33
2019-05-07T19:19:59.879Z,15.58
2019-05-07T19:22:39.657Z,14.63
2019-05-07T19:25:12.009Z,16.35
2019-05-07T19:27:44.725Z,14.93
2019-05-07T19:30:15.745Z,16.45
2019-05-07T19:32:46.427Z,15.70
2019-05-07T19:35:17.387Z,16.10
2019-05-07T19:37:48.515Z,15.93
2019-05-07T19:40:19.416Z,15.53
2019-05-07T19:42:52.133Z,15.98
2019-05-07T19:45:24.389Z,15.85
2019-05-07T19:47:54.510Z,16.17
2019-05-07T19:50:25.243Z,15.75
2019-05-07T19:52:56.057Z,16.05
2019-05-07T19:55:27.198Z,17.10
2019-05-07T19:58:02.571Z,15.75
2019-05-07T20:00:33.391Z,16.40
2019-05-07T20:03:04.187Z,15.95
2019-05-07T20:05:37.283Z,16.80
2019-05-07T20:08:07.159Z,16.67
2019-05-07T20:10:39.524Z,15.68
2019-05-07T20:13:12.512Z,17.23
2019-05-07T20:15:44.992Z,16.37
2019-05-07T20:18:15.790Z,17.07
2019-05-07T20:20:46.518Z,15.85
2019-05-07T20:23:17.316Z,16.05
2019-05-07T20:25:48.010Z,16.52
2019-05-07T20:28:18.804Z,17.85
2019-05-07T20:30:49.471Z,18.67
2019-05-07T20:33:21.949Z,17.67
2019-05-07T20:35:52.685Z,18.35
2019-05-07T20:38:23.551Z,18.05
2019-05-07T20:40:54.229Z,18.57
2019-05-07T20:43:24.976Z,19.48
2019-05-07T20:45:55.927Z,19.62
2019-05-07T20:48:26.738Z,18.45
2019-05-07T20:50:57.363Z,18.45
2019-05-07T20:53:44.596Z,21.02
2019-05-07T20:56:17.088Z,20.45
2019-05-07T20:58:47.844Z,19.67
2019-05-07T21:01:18.703Z,19.82
2019-05-07T21:03:49.368Z,19.42
2019-05-07T21:06:22.127Z,20.72
2019-05-07T21:08:52.316Z,19.95
2019-05-07T21:11:23.165Z,19.95
2019-05-07T21:13:54.106Z,19.77
2019-05-07T21:16:24.967Z,18.37
2019-05-07T21:18:55.742Z,18.30
2019-05-07T21:21:26.569Z,19.25
2019-05-07T21:23:57.467Z,18.55
2019-05-07T21:26:28.237Z,18.62
2019-05-07T21:28:58.951Z,17.95
2019-05-07T21:31:32.034Z,19.15
2019-05-07T21:34:03.134Z,18.23
2019-05-07T21:36:34.104Z,18.17
2019-05-07T21:39:06.662Z,18.77
2019-05-07T21:41:37.769Z,18.42
2019-05-07T21:44:08.435Z,18.15
2019-05-07T21:46:42.608Z,18.27
2019-05-07T21:49:12.919Z,18.98
2019-05-07T21:51:43.646Z,18.23
2019-05-07T21:54:15.985Z,19.57
2019-05-07T21:56:57.902Z,18.27
2019-05-07T21:59:32.779Z,17.30
2019-05-07T22:02:04.061Z,18.50
2019-05-07T22:04:34.900Z,18.10
2019-05-07T22:07:05.557Z,17.25
2019-05-07T22:09:36.313Z,16.85
2019-05-07T22:12:07.101Z,17.02
2019-05-07T22:14:37.963Z,17.05
2019-05-07T22:17:08.936Z,17.10
2019-05-07T22:19:42.509Z,16.90
2019-05-07T22:22:12.634Z,17.02
2019-05-07T22:24:43.424Z,17.07
2019-05-07T22:27:15.011Z,16.73
2019-05-07T22:29:52.739Z,17.57
2019-05-07T22:32:36.767Z,16.82
2019-05-07T22:35:13.683Z,16.77
2019-05-07T22:37:44.661Z,16.17
2019-05-07T22:40:15.483Z,16.87
2019-05-07T22:42:46.164Z,16.60
2019-05-07T22:45:17.352Z,16.55
2019-05-07T22:47:48.010Z,16.52
2019-05-07T22:50:18.901Z,16.90
2019-05-07T22:52:49.995Z,16.25
2019-05-07T22:55:21.822Z,17.02
2019-05-07T22:57:58.318Z,17.67
2019-05-07T23:00:37.043Z,16.10
2019-05-07T23:03:08.883Z,16.48
2019-05-07T23:08:50.056Z,17.45
2019-05-07T23:11:23.073Z,17.45
2019-05-07T23:13:54.745Z,17.15
2019-05-07T23:16:25.783Z,17.77
2019-05-07T23:18:56.555Z,17.45
2019-05-07T23:21:27.302Z,16.48
2019-05-07T23:23:57.831Z,17.27
2019-05-07T23:26:50.591Z,17.00
2019-05-07T23:32:08.751Z,16.50
2019-05-07T23:34:39.602Z,16.50
2019-05-07T23:37:11.849Z,16.30
2019-05-07T23:39:45.328Z,15.63
2019-05-07T23:42:19.917Z,15.85
2019-05-07T23:44:52.364Z,15.53
2019-05-07T23:47:22.905Z,17.15
2019-05-07T23:49:53.856Z,16.62
2019-05-07T23:52:24.570Z,16.35
2019-05-07T23:54:55.298Z,15.60
2019-05-07T23:57:26.087Z,16.10
2019-05-07T23:59:57.162Z,16.42
